createdAt,value
2018-06-09T00:00:36.727Z,100596.69
2018-06-09T00:03:06.088Z,100595.64
2018-06-09T00:05:34.755Z,100598.36
2018-06-09T00:08:04.125Z,100595.12
2018-06-09T00:10:33.398Z,100603.06
2018-06-09T00:13:02.625Z,100606.94
2018-06-09T00:15:31.952Z,100600.20
2018-06-09T00:18:01.309Z,100606.53
2018-06-09T00:20:30.519Z,100611.69
2018-06-09T00:22:59.885Z,100614.86
2018-06-09T00:25:29.090Z,100619.52
2018-06-09T00:27:58.280Z,100612.55
2018-06-09T00:30:26.593Z,100610.90
2018-06-09T00:32:55.824Z,100608.08
2018-06-09T00:35:24.168Z,100613.84
2018-06-09T00:37:53.384Z,100617.49
2018-06-09T00:40:22.579Z,100618.16
2018-06-09T00:42:51.793Z,100613.86
2018-06-09T00:45:20.960Z,100626.41
2018-06-09T00:47:50.288Z,100619.45
2018-06-09T00:50:19.497Z,100622.59
2018-06-09T00:52:48.708Z,100629.06
2018-06-09T00:55:17.032Z,100626.42
2018-06-09T00:57:46.344Z,100625.75
2018-06-09T01:00:14.659Z,100631.05
2018-06-09T01:02:42.979Z,100630.73
2018-06-09T01:05:12.184Z,100640.49
2018-06-09T01:07:41.452Z,100638.99
2018-06-09T01:10:10.769Z,100643.28
2018-06-09T01:12:40.121Z,100653.83
2018-06-09T01:15:09.305Z,100641.30
2018-06-09T01:17:38.660Z,100643.77
2018-06-09T01:20:07.969Z,100638.64
2018-06-09T01:22:36.274Z,100649.90
2018-06-09T01:25:05.724Z,100639.83
2018-06-09T01:27:34.059Z,100649.23
2018-06-09T01:30:02.386Z,100646.23
2018-06-09T01:32:30.711Z,100640.23
2018-06-09T01:34:59.021Z,100644.56
2018-06-09T01:37:28.348Z,100648.27
2018-06-09T01:39:56.661Z,100652.41
2018-06-09T01:42:24.972Z,100652.69
2018-06-09T01:44:53.288Z,100651.84
2018-06-09T01:47:21.605Z,100648.96
2018-06-09T01:49:50.916Z,100649.91
2018-06-09T01:52:20.238Z,100655.00
2018-06-09T01:54:49.548Z,100651.85
2018-06-09T01:57:18.873Z,100647.53
2018-06-09T01:59:48.227Z,100647.92
2018-06-09T02:02:16.580Z,100642.03
2018-06-09T02:04:45.773Z,100644.50
2018-06-09T02:07:14.091Z,100649.22
2018-06-09T02:09:43.422Z,100650.81
2018-06-09T02:12:12.969Z,100645.84
2018-06-09T02:14:42.180Z,100645.65
2018-06-09T02:17:10.496Z,100646.80
2018-06-09T02:19:38.817Z,100651.30
2018-06-09T02:22:07.132Z,100638.95
2018-06-09T02:24:36.488Z,100641.87
2018-06-09T02:27:04.881Z,100640.45
2018-06-09T02:29:34.278Z,100640.14
2018-06-09T02:32:02.713Z,100639.41
2018-06-09T02:34:31.025Z,100632.64
2018-06-09T02:36:59.332Z,100634.39
2018-06-09T02:39:27.642Z,100633.81
2018-06-09T02:41:56.837Z,100633.95
2018-06-09T02:44:26.188Z,100628.63
2018-06-09T02:46:54.555Z,100617.67
2018-06-09T02:49:23.745Z,100621.47
2018-06-09T02:51:52.098Z,100621.84
2018-06-09T02:54:21.299Z,100613.08
2018-06-09T02:56:49.641Z,100607.23
2018-06-09T02:59:18.884Z,100609.38
2018-06-09T03:01:47.197Z,100602.41
2018-06-09T03:04:16.541Z,100602.80
2018-06-09T03:06:45.893Z,100609.39
2018-06-09T03:09:15.054Z,100605.66
2018-06-09T03:11:44.269Z,100603.09
2018-06-09T03:14:13.449Z,100605.55
2018-06-09T03:16:42.672Z,100597.98
2018-06-09T03:19:10.986Z,100599.25
2018-06-09T03:21:40.353Z,100603.84
2018-06-09T03:24:09.680Z,100595.89
2018-06-09T03:26:39.003Z,100594.55
2018-06-09T03:29:07.451Z,100588.24
2018-06-09T03:31:36.637Z,100594.73
2018-06-09T03:34:05.834Z,100600.34
2018-06-09T03:36:35.157Z,100593.94
2018-06-09T03:39:04.400Z,100594.89
2018-06-09T03:41:33.587Z,100596.95
2018-06-09T03:44:01.928Z,100591.28
2018-06-09T03:46:30.286Z,100597.07
2018-06-09T03:48:58.629Z,100601.01
2018-06-09T03:51:27.980Z,100593.94
2018-06-09T03:53:56.359Z,100601.22
2018-06-09T03:56:24.713Z,100608.17
2018-06-09T03:58:53.072Z,100599.71
2018-06-09T04:01:21.377Z,100600.48
2018-06-09T04:03:49.725Z,100594.17
2018-06-09T04:06:19.098Z,100582.30
2018-06-09T04:08:47.455Z,100589.95
2018-06-09T04:11:16.789Z,100584.08
2018-06-09T04:13:45.153Z,100585.18
2018-06-09T04:16:14.348Z,100590.17
2018-06-09T04:18:42.676Z,100595.81
2018-06-09T04:21:11.997Z,100598.12
2018-06-09T04:23:41.304Z,100601.06
2018-06-09T04:26:09.609Z,100603.34
2018-06-09T04:28:38.616Z,100616.73
2018-06-09T04:31:07.982Z,100620.77
2018-06-09T04:33:37.311Z,100617.94
2018-06-09T04:36:06.502Z,100615.42
2018-06-09T04:38:34.821Z,100610.80
2018-06-09T04:41:03.140Z,100602.87
2018-06-09T04:43:31.468Z,100606.39
2018-06-09T04:45:59.795Z,100603.56
2018-06-09T04:48:28.142Z,100608.38
2018-06-09T04:50:56.453Z,100610.56
2018-06-09T04:53:24.773Z,100611.88
2018-06-09T04:55:53.086Z,100608.89
2018-06-09T04:58:21.400Z,100611.54
2018-06-09T05:00:49.714Z,100612.87
2018-06-09T05:03:18.054Z,100609.20
2018-06-09T05:05:46.384Z,100613.53
2018-06-09T05:08:14.704Z,100611.38
2018-06-09T05:10:43.041Z,100610.55
2018-06-09T05:13:11.408Z,100615.02
2018-06-09T05:15:39.720Z,100611.55
2018-06-09T05:18:08.045Z,100616.51
2018-06-09T05:20:36.379Z,100625.56
2018-06-09T05:23:04.729Z,100620.09
2018-06-09T05:25:33.040Z,100633.31
2018-06-09T05:28:01.928Z,100630.95
2018-06-09T05:30:31.075Z,100622.27
2018-06-09T05:32:59.402Z,100628.49
2018-06-09T05:35:27.721Z,100626.05
2018-06-09T05:37:56.085Z,100628.13
2018-06-09T05:40:24.408Z,100634.04
2018-06-09T05:42:52.738Z,100634.61
2018-06-09T05:45:21.050Z,100635.34
2018-06-09T05:47:49.360Z,100631.09
2018-06-09T05:50:17.715Z,100627.34
2018-06-09T05:52:46.043Z,100635.45
2018-06-09T05:55:14.353Z,100632.38
2018-06-09T05:57:42.668Z,100634.48
2018-06-09T06:00:12.023Z,100639.63
2018-06-09T06:02:41.218Z,100644.10
2018-06-09T06:05:10.544Z,100638.72
2018-06-09T06:07:38.856Z,100640.19
2018-06-09T06:10:08.066Z,100645.39
2018-06-09T06:12:37.455Z,100638.92
2018-06-09T06:15:05.785Z,100639.61
2018-06-09T06:17:34.097Z,100641.91
2018-06-09T06:20:02.406Z,100645.20
2018-06-09T06:22:30.724Z,100642.59
2018-06-09T06:24:59.047Z,100644.66
2018-06-09T06:27:27.360Z,100643.53
2018-06-09T06:29:55.768Z,100643.35
2018-06-09T06:34:51.462Z,100649.75
2018-06-09T06:37:19.866Z,100651.68
2018-06-09T06:39:48.215Z,100656.36
2018-06-09T06:42:25.079Z,100656.10
2018-06-09T06:44:53.825Z,100656.93
2018-06-09T06:47:22.262Z,100654.63
2018-06-09T06:49:50.578Z,100661.27
2018-06-09T06:52:18.892Z,100658.83
2018-06-09T06:54:48.227Z,100664.91
2018-06-09T06:57:17.329Z,100657.15
2018-06-09T06:59:45.649Z,100650.52
2018-06-09T07:02:14.025Z,100647.05
2018-06-09T07:04:42.342Z,100651.18
2018-06-09T07:07:10.812Z,100638.92
2018-06-09T07:09:39.137Z,100646.88
2018-06-09T07:12:08.249Z,100653.56
2018-06-09T07:14:36.569Z,100647.17
2018-06-09T07:17:04.896Z,100652.52
2018-06-09T07:19:33.214Z,100654.80
2018-06-09T07:22:01.572Z,100653.56
2018-06-09T07:24:29.885Z,100653.05
2018-06-09T07:26:58.248Z,100653.77
2018-06-09T07:29:26.665Z,100648.22
2018-06-09T07:31:55.853Z,100655.50
2018-06-09T07:34:24.174Z,100657.62
2018-06-09T07:36:52.528Z,100647.34
2018-06-09T07:39:21.633Z,100658.18
2018-06-09T07:41:50.885Z,100652.33
2018-06-09T07:44:19.200Z,100650.58
2018-06-09T07:46:47.509Z,100652.12
2018-06-09T07:49:15.826Z,100651.92
2018-06-09T07:51:44.180Z,100654.72
2018-06-09T07:54:12.549Z,100653.30
2018-06-09T07:56:40.905Z,100658.23
2018-06-09T07:59:09.213Z,100656.27
2018-06-09T08:01:37.558Z,100653.48
2018-06-09T08:04:05.870Z,100652.59
2018-06-09T08:06:34.212Z,100657.89
2018-06-09T08:09:02.544Z,100648.52
2018-06-09T08:11:30.837Z,100646.42
2018-06-09T08:13:59.223Z,100649.92
2018-06-09T08:16:28.547Z,100647.04
2018-06-09T08:18:56.850Z,100647.27
2018-06-09T08:21:25.161Z,100649.50
2018-06-09T08:23:53.497Z,100649.55
2018-06-09T08:26:22.688Z,100644.13
2018-06-09T08:28:51.024Z,100646.95
2018-06-09T08:31:20.205Z,100642.41
2018-06-09T08:33:48.507Z,100647.34
2018-06-09T08:36:16.817Z,100647.11
2018-06-09T08:38:45.148Z,100647.20
2018-06-09T08:41:13.465Z,100641.42
2018-06-09T08:43:41.761Z,100638.84
2018-06-09T08:46:10.063Z,100644.55
2018-06-09T08:48:40.377Z,100642.23
2018-06-09T08:51:08.677Z,100646.38
2018-06-09T08:53:36.977Z,100645.23
2018-06-09T08:56:05.286Z,100646.52
2018-06-09T08:58:33.600Z,100641.95
2018-06-09T09:01:01.905Z,100653.90
2018-06-09T09:03:30.212Z,100647.19
2018-06-09T09:05:58.528Z,100640.94
2018-06-09T09:08:26.864Z,100638.86
2018-06-09T09:10:55.172Z,100642.14
2018-06-09T09:13:23.657Z,100641.62
2018-06-09T09:15:51.957Z,100633.41
2018-06-09T09:18:20.264Z,100645.88
2018-06-09T09:20:48.583Z,100642.88
2018-06-09T09:23:17.783Z,100636.59
2018-06-09T09:25:46.085Z,100635.83
2018-06-09T09:28:14.388Z,100638.08
2018-06-09T09:30:42.730Z,100634.67
2018-06-09T09:33:11.065Z,100645.00
2018-06-09T09:35:39.412Z,100642.41
2018-06-09T09:38:08.720Z,100648.92
2018-06-09T09:40:37.033Z,100640.13
2018-06-09T09:43:06.341Z,100645.67
2018-06-09T09:45:34.654Z,100641.58
2018-06-09T09:48:03.911Z,100637.52
2018-06-09T09:50:32.224Z,100633.38
2018-06-09T09:53:01.392Z,100627.19
2018-06-09T09:55:29.698Z,100632.48
2018-06-09T09:58:00.140Z,100629.55
2018-06-09T10:00:33.713Z,100632.31
2018-06-09T10:03:03.065Z,100631.71
2018-06-09T10:05:32.377Z,100629.78
2018-06-09T10:08:01.597Z,100635.31
2018-06-09T10:10:30.974Z,100631.14
2018-06-09T10:12:59.277Z,100630.23
2018-06-09T10:15:27.614Z,100623.41
2018-06-09T10:17:56.925Z,100616.83
2018-06-09T10:20:26.125Z,100610.64
2018-06-09T10:22:55.248Z,100605.77
2018-06-09T10:25:24.509Z,100606.37
2018-06-09T10:27:53.736Z,100598.51
2018-06-09T10:30:23.030Z,100601.62
2018-06-09T10:32:51.395Z,100596.44
2018-06-09T10:35:20.704Z,100604.36
2018-06-09T10:37:50.036Z,100606.55
2018-06-09T10:40:19.216Z,100610.89
2018-06-09T10:42:48.388Z,100605.11
2018-06-09T10:45:17.628Z,100606.41
2018-06-09T10:47:46.948Z,100597.52
2018-06-09T10:50:16.125Z,100590.77
2018-06-09T10:52:44.473Z,100584.68
2018-06-09T10:55:13.662Z,100594.30
2018-06-09T10:57:42.016Z,100593.68
2018-06-09T11:00:11.429Z,100592.27
2018-06-09T11:02:39.777Z,100600.59
2018-06-09T11:05:09.057Z,100597.58
2018-06-09T11:07:37.372Z,100582.55
2018-06-09T11:10:05.899Z,100587.19
2018-06-09T11:12:35.095Z,100578.51
2018-06-09T11:15:04.339Z,100585.25
2018-06-09T11:17:33.591Z,100583.45
2018-06-09T11:20:02.941Z,100587.34
2018-06-09T11:22:31.307Z,100591.47
2018-06-09T11:25:00.528Z,100584.75
2018-06-09T11:27:29.831Z,100580.84
2018-06-09T11:29:58.144Z,100583.63
2018-06-09T11:32:26.461Z,100578.95
2018-06-09T11:34:54.774Z,100572.84
2018-06-09T11:37:23.097Z,100569.55
2018-06-09T11:39:51.417Z,100562.31
2018-06-09T11:42:19.724Z,100562.59
2018-06-09T11:44:48.032Z,100563.20
2018-06-09T11:47:16.340Z,100553.48
2018-06-09T11:49:44.649Z,100548.45
2018-06-09T11:52:12.961Z,100547.80
2018-06-09T11:54:41.281Z,100545.68
2018-06-09T11:57:09.857Z,100541.53
2018-06-09T11:59:42.797Z,100542.58
2018-06-09T12:02:11.162Z,100540.70
2018-06-09T12:04:39.480Z,100536.75
2018-06-09T12:07:07.794Z,100542.11
2018-06-09T12:09:36.139Z,100533.89
2018-06-09T12:12:04.465Z,100543.83
2018-06-09T12:14:33.789Z,100534.16
2018-06-09T12:17:02.966Z,100525.83
2018-06-09T12:19:32.185Z,100535.58
2018-06-09T12:22:01.383Z,100528.47
2018-06-09T12:24:29.690Z,100525.53
2018-06-09T12:26:58.065Z,100526.21
2018-06-09T12:29:26.372Z,100525.97
2018-06-09T12:31:54.713Z,100520.61
2018-06-09T12:34:23.041Z,100518.77
2018-06-09T12:36:51.353Z,100517.65
2018-06-09T12:39:19.686Z,100521.43
2018-06-09T12:41:48.025Z,100512.37
2018-06-09T12:44:16.371Z,100510.88
2018-06-09T12:46:44.721Z,100506.69
2018-06-09T12:49:13.036Z,100507.27
2018-06-09T12:51:41.390Z,100507.09
2018-06-09T12:54:09.751Z,100506.39
2018-06-09T12:56:38.956Z,100502.59
2018-06-09T12:59:07.279Z,100503.25
2018-06-09T13:01:35.594Z,100493.23
2018-06-09T13:04:03.948Z,100495.95
2018-06-09T13:06:32.288Z,100494.74
2018-06-09T13:09:00.644Z,100492.13
2018-06-09T13:11:29.009Z,100491.03
2018-06-09T13:13:57.417Z,100484.02
2018-06-09T13:16:25.722Z,100483.09
2018-06-09T13:18:54.039Z,100485.08
2018-06-09T13:21:22.360Z,100486.47
2018-06-09T13:23:51.568Z,100483.00
2018-06-09T13:26:20.900Z,100482.39
2018-06-09T13:28:49.216Z,100476.34
2018-06-09T13:31:17.545Z,100487.71
2018-06-09T13:33:45.898Z,100481.84
2018-06-09T13:36:14.214Z,100496.55
2018-06-09T13:38:42.622Z,100487.30
2018-06-09T13:41:11.812Z,100478.54
2018-06-09T13:43:41.044Z,100478.61
2018-06-09T13:46:10.157Z,100473.72
2018-06-09T13:48:39.520Z,100474.27
2018-06-09T13:51:08.888Z,100472.81
2018-06-09T13:53:38.209Z,100473.00
2018-06-09T13:56:06.566Z,100463.69
2018-06-09T13:58:35.880Z,100466.83
2018-06-09T14:01:05.236Z,100459.17
2018-06-09T14:03:33.548Z,100458.06
2018-06-09T14:06:03.725Z,100457.92
2018-06-09T14:08:33.028Z,100457.20
2018-06-09T14:11:02.232Z,100451.88
2018-06-09T14:13:31.553Z,100444.58
2018-06-09T14:16:00.856Z,100445.16
2018-06-09T14:18:30.217Z,100442.94
2018-06-09T14:20:58.537Z,100431.53
2018-06-09T14:23:27.717Z,100444.19
2018-06-09T14:25:56.048Z,100437.39
2018-06-09T14:28:24.367Z,100441.45
2018-06-09T14:30:52.685Z,100433.87
2018-06-09T14:33:21.016Z,100436.59
2018-06-09T14:35:53.303Z,100440.17
2018-06-09T14:38:21.614Z,100434.53
2018-06-09T14:40:50.789Z,100419.03
2018-06-09T14:43:19.104Z,100427.55
2018-06-09T14:45:47.430Z,100430.86
2018-06-09T14:48:15.751Z,100427.04
2018-06-09T14:50:44.074Z,100426.73
2018-06-09T14:53:12.400Z,100426.77
2018-06-09T14:55:40.713Z,100422.19
2018-06-09T14:58:09.029Z,100415.95
2018-06-09T15:00:37.335Z,100411.13
2018-06-09T15:03:05.652Z,100413.13
2018-06-09T15:05:33.980Z,100410.80
2018-06-09T15:08:02.336Z,100414.90
2018-06-09T15:10:30.665Z,100414.74
2018-06-09T15:12:58.969Z,100421.70
2018-06-09T15:15:27.328Z,100427.45
2018-06-09T15:17:55.636Z,100408.61
2018-06-09T15:20:23.964Z,100417.23
2018-06-09T15:22:52.280Z,100418.62
2018-06-09T15:25:20.595Z,100422.16
2018-06-09T15:27:48.910Z,100421.41
2018-06-09T15:30:17.227Z,100417.36
2018-06-09T15:32:45.551Z,100414.73
2018-06-09T15:35:13.915Z,100412.96
2018-06-09T15:37:42.220Z,100408.20
2018-06-09T15:40:10.549Z,100408.45
2018-06-09T15:42:38.861Z,100407.30
2018-06-09T15:45:07.174Z,100409.45
2018-06-09T15:47:35.484Z,100405.57
2018-06-09T15:50:03.853Z,100403.05
2018-06-09T15:52:32.175Z,100398.42
2018-06-09T15:55:00.496Z,100402.75
2018-06-09T15:57:28.820Z,100397.77
2018-06-09T15:59:58.096Z,100403.76
2018-06-09T16:02:26.853Z,100403.31
2018-06-09T16:04:55.188Z,100398.85
2018-06-09T16:07:23.545Z,100400.38
2018-06-09T16:09:51.906Z,100400.09
2018-06-09T16:12:20.218Z,100400.30
2018-06-09T16:14:48.633Z,100410.13
2018-06-09T16:17:16.930Z,100407.47
2018-06-09T16:19:45.250Z,100412.88
2018-06-09T16:22:14.394Z,100413.48
2018-06-09T16:24:42.753Z,100415.98
2018-06-09T16:27:11.065Z,100412.36
2018-06-09T16:29:39.372Z,100407.80
2018-06-09T16:32:07.681Z,100412.12
2018-06-09T16:34:35.999Z,100414.75
2018-06-09T16:37:04.304Z,100419.45
2018-06-09T16:39:32.614Z,100419.34
2018-06-09T16:42:00.925Z,100415.21
2018-06-09T16:44:29.232Z,100417.19
2018-06-09T16:46:57.546Z,100411.75
2018-06-09T16:49:25.863Z,100415.28
2018-06-09T16:51:54.206Z,100415.28
2018-06-09T16:54:22.518Z,100424.45
2018-06-09T16:56:51.699Z,100426.21
2018-06-09T16:59:20.020Z,100422.96
2018-06-09T17:01:48.339Z,100419.22
2018-06-09T17:04:16.652Z,100421.56
2018-06-09T17:06:44.973Z,100429.05
2018-06-09T17:09:14.336Z,100442.12
2018-06-09T17:11:42.653Z,100466.94
2018-06-09T17:14:10.974Z,100474.53
2018-06-09T17:16:39.286Z,100489.20
2018-06-09T17:19:07.597Z,100486.95
2018-06-09T17:21:35.914Z,100486.45
2018-06-09T17:24:04.238Z,100479.55
2018-06-09T17:26:33.552Z,100489.86
2018-06-09T17:29:02.913Z,100484.86
2018-06-09T17:31:32.238Z,100502.19
2018-06-09T17:34:01.545Z,100501.59
2018-06-09T17:36:30.880Z,100501.29
2018-06-09T17:39:00.109Z,100503.59
2018-06-09T17:41:29.429Z,100494.02
2018-06-09T17:43:57.807Z,100494.18
2018-06-09T17:46:26.128Z,100490.36
2018-06-09T17:48:55.306Z,100495.54
2018-06-09T17:51:23.621Z,100498.48
2018-06-09T17:53:51.940Z,100499.42
2018-06-09T17:56:21.155Z,100506.09
2018-06-09T17:58:50.360Z,100500.59
2018-06-09T18:01:18.677Z,100502.97
2018-06-09T18:03:47.063Z,100510.64
2018-06-09T18:06:16.269Z,100501.35
2018-06-09T18:08:44.576Z,100506.44
2018-06-09T18:11:12.920Z,100505.36
2018-06-09T18:13:42.110Z,100501.37
2018-06-09T18:16:10.421Z,100490.66
2018-06-09T18:18:38.723Z,100493.76
2018-06-09T18:21:07.037Z,100497.30
2018-06-09T18:23:36.241Z,100506.00
2018-06-09T18:26:04.568Z,100509.50
2018-06-09T18:28:32.870Z,100506.88
2018-06-09T18:31:02.088Z,100501.94
2018-06-09T18:33:30.436Z,100505.75
2018-06-09T18:35:59.630Z,100511.45
2018-06-09T18:38:27.945Z,100512.61
2018-06-09T18:40:57.260Z,100514.56
2018-06-09T18:43:26.574Z,100509.30
2018-06-09T18:45:55.708Z,100504.39
2018-06-09T18:48:24.892Z,100502.20
2018-06-09T18:50:54.154Z,100498.39
2018-06-09T18:53:23.341Z,100501.28
2018-06-09T18:55:51.709Z,100502.20
2018-06-09T18:58:20.020Z,100497.45
2018-06-09T19:00:49.293Z,100507.41
2018-06-09T19:03:18.528Z,100505.84
2018-06-09T19:05:46.873Z,100504.36
2018-06-09T19:08:16.056Z,100505.37
2018-06-09T19:10:44.373Z,100510.92
2018-06-09T19:13:13.695Z,100509.45
2018-06-09T19:15:43.006Z,100505.88
2018-06-09T19:18:12.340Z,100509.95
2018-06-09T19:20:40.700Z,100515.45
2018-06-09T19:23:09.888Z,100518.63
2018-06-09T19:25:39.211Z,100514.42
2018-06-09T19:28:07.521Z,100523.20
2018-06-09T19:30:35.831Z,100522.89
2018-06-09T19:33:04.951Z,100532.28
2018-06-09T19:35:34.146Z,100537.45
2018-06-09T19:38:03.338Z,100537.70
2018-06-09T19:40:31.654Z,100537.96
2018-06-09T19:42:59.965Z,100542.12
2018-06-09T19:45:28.283Z,100549.86
2018-06-09T19:47:56.597Z,100547.73
2018-06-09T19:50:25.793Z,100547.22
2018-06-09T19:52:54.123Z,100543.92
2018-06-09T19:55:22.445Z,100546.83
2018-06-09T19:57:50.762Z,100546.23
2018-06-09T20:00:19.997Z,100550.77
2018-06-09T20:02:48.401Z,100554.87
2018-06-09T20:05:16.758Z,100551.64
2018-06-09T20:07:45.061Z,100555.94
2018-06-09T20:10:13.381Z,100559.04
2018-06-09T20:12:41.691Z,100556.70
2018-06-09T20:15:10.054Z,100559.94
2018-06-09T20:17:38.384Z,100560.50
2018-06-09T20:20:06.702Z,100560.13
2018-06-09T20:22:35.017Z,100570.52
2018-06-09T20:25:03.381Z,100567.32
2018-06-09T20:27:31.746Z,100575.38
2018-06-09T20:30:00.071Z,100571.86
2018-06-09T20:32:28.416Z,100576.64
2018-06-09T20:34:56.753Z,100572.39
2018-06-09T20:37:25.115Z,100569.09
2018-06-09T20:39:53.449Z,100580.10
2018-06-09T20:42:22.689Z,100577.19
2018-06-09T20:44:51.017Z,100574.89
2018-06-09T20:47:20.240Z,100580.21
2018-06-09T20:49:49.425Z,100577.83
2018-06-09T20:52:18.658Z,100569.43
2018-06-09T20:54:47.861Z,100571.76
2018-06-09T20:57:17.173Z,100564.41
2018-06-09T20:59:46.426Z,100565.27
2018-06-09T21:02:15.614Z,100553.52
2018-06-09T21:04:44.797Z,100556.67
2018-06-09T21:07:13.153Z,100559.39
2018-06-09T21:09:41.471Z,100557.62
2018-06-09T21:12:10.826Z,100557.73
2018-06-09T21:14:40.054Z,100562.97
2018-06-09T21:17:09.284Z,100567.02
2018-06-09T21:19:38.494Z,100564.72
2018-06-09T21:22:06.800Z,100560.22
2018-06-09T21:24:36.001Z,100559.95
2018-06-09T21:27:09.521Z,100564.77
2018-06-09T21:29:43.944Z,100566.08
2018-06-09T21:32:16.521Z,100563.38
2018-06-09T21:35:01.305Z,100555.30
2018-06-09T21:37:35.621Z,100564.48
2018-06-09T21:40:09.341Z,100565.85
2018-06-09T21:42:41.853Z,100567.72
2018-06-09T21:45:11.757Z,100566.44
2018-06-09T21:47:40.953Z,100562.96
2018-06-09T21:50:09.260Z,100570.94
2018-06-09T21:52:37.625Z,100570.94
2018-06-09T21:55:06.802Z,100575.11
2018-06-09T21:57:35.111Z,100576.39
2018-06-09T22:00:05.981Z,100581.56
2018-06-09T22:02:35.408Z,100575.91
2018-06-09T22:05:03.770Z,100572.45
2018-06-09T22:07:32.084Z,100570.98
2018-06-09T22:10:01.394Z,100571.22
2018-06-09T22:12:29.761Z,100568.33
2018-06-09T22:14:59.009Z,100567.67
2018-06-09T22:17:28.314Z,100580.28
2018-06-09T22:19:57.536Z,100581.36
2018-06-09T22:22:25.881Z,100575.25
2018-06-09T22:24:54.250Z,100580.75
2018-06-09T22:27:23.448Z,100582.16
2018-06-09T22:29:51.771Z,100585.87
2018-06-09T22:32:20.246Z,100582.91
2018-06-09T22:34:48.556Z,100573.66
2018-06-09T22:37:16.873Z,100560.23
2018-06-09T22:39:45.189Z,100563.41
2018-06-09T22:42:13.499Z,100568.04
2018-06-09T22:44:41.810Z,100565.69
2018-06-09T22:47:10.139Z,100566.59
2018-06-09T22:49:38.453Z,100560.48
2018-06-09T22:52:06.764Z,100556.07
2018-06-09T22:54:36.090Z,100550.61
2018-06-09T22:57:04.397Z,100552.12
2018-06-09T22:59:33.637Z,100551.44
2018-06-09T23:02:01.951Z,100545.98
2018-06-09T23:04:30.249Z,100543.53
2018-06-09T23:06:58.558Z,100548.01
2018-06-09T23:09:26.874Z,100554.30
2018-06-09T23:11:55.212Z,100546.28
2018-06-09T23:14:23.525Z,100540.95
2018-06-09T23:16:51.844Z,100537.34
2018-06-09T23:19:20.160Z,100532.37
2018-06-09T23:21:48.473Z,100530.02
2018-06-09T23:24:16.776Z,100529.03
2018-06-09T23:26:45.992Z,100528.39
2018-06-09T23:29:14.298Z,100527.55
2018-06-09T23:31:42.613Z,100528.39
2018-06-09T23:34:10.917Z,100539.40
2018-06-09T23:36:39.225Z,100532.81
2018-06-09T23:39:07.811Z,100527.54
2018-06-09T23:41:36.136Z,100537.13
2018-06-09T23:44:04.449Z,100532.84
2018-06-09T23:46:32.837Z,100531.56
2018-06-09T23:49:01.113Z,100533.61
2018-06-09T23:51:29.477Z,100528.32
2018-06-09T23:53:57.792Z,100520.55
2018-06-09T23:56:27.104Z,100515.11
2018-06-09T23:58:55.427Z,100521.08
